createdAt,value
2022-12-23T00:00:09.061Z,99419.78
2022-12-23T00:02:35.587Z,99405.69
2022-12-23T00:05:02.085Z,99411.84
2022-12-23T00:07:28.368Z,99414.47
2022-12-23T00:09:54.680Z,99407.41
2022-12-23T00:12:39.628Z,99403.00
2022-12-23T00:15:06.584Z,99407.41
2022-12-23T00:17:34.565Z,99402.16
2022-12-23T00:20:01.471Z,99395.09
2022-12-23T00:22:46.809Z,99392.47
2022-12-23T00:25:13.366Z,99399.50
2022-12-23T00:27:40.149Z,99405.69
2022-12-23T00:30:09.787Z,99388.09
2022-12-23T00:32:36.335Z,99383.69
2022-12-23T00:35:02.613Z,99388.97
2022-12-23T00:37:30.912Z,99381.91
2022-12-23T00:40:15.844Z,99388.06
2022-12-23T00:42:53.842Z,99381.03
2022-12-23T00:45:21.529Z,99388.97
2022-12-23T00:48:07.226Z,99373.97
2022-12-23T00:50:36.821Z,99396.84
2022-12-23T00:53:04.107Z,99401.25
2022-12-23T00:55:30.804Z,99403.91
2022-12-23T00:57:57.402Z,99400.41
2022-12-23T01:00:43.863Z,99397.75
2022-12-23T01:03:33.442Z,99392.50
2022-12-23T01:06:01.637Z,99408.34
2022-12-23T01:08:28.753Z,99410.09
2022-12-23T01:10:55.735Z,99412.81
2022-12-23T01:13:22.068Z,99414.53
2022-12-23T01:15:48.392Z,99415.47
2022-12-23T01:18:14.746Z,99425.97
2022-12-23T01:20:41.276Z,99419.78
2022-12-23T01:23:07.654Z,99425.09
2022-12-23T01:25:33.963Z,99448.03
2022-12-23T01:28:00.230Z,99449.72
2022-12-23T01:30:26.702Z,99454.13
2022-12-23T01:32:53.028Z,99447.94
2022-12-23T01:35:19.293Z,99465.50
2022-12-23T01:37:45.616Z,99468.13
2022-12-23T01:40:11.971Z,99461.88
2022-12-23T01:42:44.328Z,99459.16
2022-12-23T01:45:24.853Z,99473.31
2022-12-23T01:48:14.044Z,99475.06
2022-12-23T01:50:46.399Z,99481.22
2022-12-23T01:53:21.759Z,99480.31
2022-12-23T01:55:54.249Z,99481.22
2022-12-23T01:58:29.647Z,99483.88
2022-12-23T02:01:16.684Z,99485.63
2022-12-23T02:03:45.296Z,99482.06
2022-12-23T02:06:53.501Z,99493.53
2022-12-23T02:09:24.420Z,99505.84
2022-12-23T02:12:09.150Z,99523.44
2022-12-23T02:15:22.066Z,99511.03
2022-12-23T02:18:08.838Z,99513.66
2022-12-23T02:21:08.538Z,99524.16
2022-12-23T02:23:56.509Z,99520.59
2022-12-23T02:26:22.763Z,99524.13
2022-12-23T02:29:23.004Z,99524.16
2022-12-23T02:32:03.407Z,99525.91
2022-12-23T02:34:54.347Z,99503.88
2022-12-23T02:37:36.727Z,99525.88
2022-12-23T02:40:11.236Z,99524.94
2022-12-23T02:42:46.672Z,99524.94
2022-12-23T02:45:29.596Z,99517.91
2022-12-23T02:48:17.204Z,99518.84
2022-12-23T02:50:45.607Z,99528.47
2022-12-23T02:53:20.047Z,99537.31
2022-12-23T02:55:48.963Z,99532.88
2022-12-23T02:58:18.780Z,99526.84
2022-12-23T03:00:46.844Z,99528.50
2022-12-23T03:03:13.272Z,99524.09
2022-12-23T03:05:43.992Z,99519.69
2022-12-23T03:08:18.591Z,99517.94
2022-12-23T03:11:01.661Z,99532.03
2022-12-23T03:13:39.817Z,99548.72
2022-12-23T03:16:20.624Z,99539.88
2022-12-23T03:19:10.177Z,99545.16
2022-12-23T03:21:59.618Z,99555.69
2022-12-23T03:24:44.667Z,99554.84
2022-12-23T03:27:36.027Z,99546.91
2022-12-23T03:30:15.962Z,99550.38
2022-12-23T03:33:25.872Z,99572.38
2022-12-23T03:35:57.749Z,99541.44
2022-12-23T03:38:26.035Z,99566.09
2022-12-23T03:40:57.945Z,99589.84
2022-12-23T03:43:33.064Z,99578.31
2022-12-23T03:46:03.543Z,99575.69
2022-12-23T03:48:39.376Z,99574.00
2022-12-23T03:51:14.732Z,99558.91
2022-12-23T03:53:47.138Z,99583.56
2022-12-23T03:56:19.143Z,99579.13
2022-12-23T03:58:57.884Z,99584.44
2022-12-23T04:01:37.256Z,99592.28
2022-12-23T04:04:11.782Z,99598.38
2022-12-23T04:07:03.461Z,99600.16
2022-12-23T04:09:29.826Z,99604.50
2022-12-23T04:11:58.139Z,99601.84
2022-12-23T04:14:24.521Z,99589.50
2022-12-23T04:16:54.989Z,99607.84
2022-12-23T04:19:21.428Z,99596.38
2022-12-23T04:21:47.800Z,99621.75
2022-12-23T04:24:14.176Z,99612.94
2022-12-23T04:26:40.457Z,99603.16
2022-12-23T04:29:06.742Z,99600.41
2022-12-23T04:31:33.047Z,99590.63
2022-12-23T04:33:59.436Z,99593.16
2022-12-23T04:36:25.740Z,99589.50
2022-12-23T04:38:51.997Z,99596.34
2022-12-23T04:41:18.351Z,99595.34
2022-12-23T04:43:49.305Z,99596.25
2022-12-23T04:46:19.017Z,99596.38
2022-12-23T04:48:45.398Z,99605.13
2022-12-23T04:51:11.734Z,99613.78
2022-12-23T04:53:38.287Z,99612.63
2022-12-23T04:56:04.822Z,99618.50
2022-12-23T04:58:31.138Z,99619.16
2022-12-23T05:01:09.011Z,99605.66
2022-12-23T05:03:35.862Z,99609.91
2022-12-23T05:06:02.298Z,99628.19
2022-12-23T05:08:29.054Z,99632.75
2022-12-23T05:10:55.715Z,99628.63
2022-12-23T05:13:22.494Z,99618.44
2022-12-23T05:15:50.688Z,99630.09
2022-12-23T05:18:17.416Z,99639.25
2022-12-23T05:20:50.689Z,99634.47
2022-12-23T05:23:18.101Z,99630.06
2022-12-23T05:25:51.719Z,99633.44
2022-12-23T05:28:18.119Z,99627.16
2022-12-23T05:30:44.464Z,99629.38
2022-12-23T05:33:10.802Z,99621.06
2022-12-23T05:35:37.088Z,99640.09
2022-12-23T05:38:03.917Z,99636.31
2022-12-23T05:40:31.973Z,99634.28
2022-12-23T05:42:59.306Z,99642.13
2022-12-23T05:45:25.765Z,99641.16
2022-12-23T05:47:52.219Z,99636.81
2022-12-23T05:50:18.501Z,99638.56
2022-12-23T05:52:44.802Z,99639.50
2022-12-23T05:55:11.095Z,99634.41
2022-12-23T05:57:37.435Z,99643.41
2022-12-23T06:00:04.477Z,99645.66
2022-12-23T06:02:31.101Z,99637.72
2022-12-23T06:04:57.598Z,99649.94
2022-12-23T06:07:23.985Z,99652.34
2022-12-23T06:09:50.254Z,99653.75
2022-12-23T06:12:16.686Z,99649.78
2022-12-23T06:14:42.965Z,99658.38
2022-12-23T06:17:09.399Z,99650.44
2022-12-23T06:19:35.774Z,99659.56
2022-12-23T06:22:02.076Z,99667.75
2022-12-23T06:24:28.402Z,99665.53
2022-12-23T06:26:57.226Z,99673.91
2022-12-23T06:29:24.213Z,99680.16
2022-12-23T06:31:50.555Z,99681.16
2022-12-23T06:34:16.970Z,99678.53
2022-12-23T06:36:43.229Z,99682.91
2022-12-23T06:39:10.624Z,99683.59
2022-12-23T06:41:36.906Z,99683.63
2022-12-23T06:44:03.484Z,99679.22
2022-12-23T06:46:29.938Z,99679.34
2022-12-23T06:48:56.283Z,99686.56
2022-12-23T06:51:22.699Z,99677.16
2022-12-23T06:53:49.267Z,99682.38
2022-12-23T06:56:15.698Z,99689.41
2022-12-23T06:58:42.055Z,99679.81
2022-12-23T07:01:10.122Z,99660.41
2022-12-23T07:03:36.726Z,99668.31
2022-12-23T07:06:03.461Z,99666.41
2022-12-23T07:08:29.797Z,99670.09
2022-12-23T07:11:03.423Z,99662.25
2022-12-23T07:13:30.736Z,99674.66
2022-12-23T07:15:57.023Z,99659.66
2022-12-23T07:18:23.631Z,99665.72
2022-12-23T07:20:50.524Z,99661.53
2022-12-23T07:23:16.918Z,99669.47
2022-12-23T07:25:43.314Z,99677.53
2022-12-23T07:28:09.609Z,99680.19
2022-12-23T07:30:36.206Z,99682.75
2022-12-23T07:33:02.597Z,99687.94
2022-12-23T07:35:28.908Z,99695.66
2022-12-23T07:37:56.103Z,99699.31
2022-12-23T07:40:23.206Z,99701.94
2022-12-23T07:42:50.582Z,99701.78
2022-12-23T07:45:16.916Z,99696.44
2022-12-23T07:47:43.347Z,99697.19
2022-12-23T07:50:10.018Z,99698.88
2022-12-23T07:52:36.322Z,99718.28
2022-12-23T07:55:02.654Z,99712.03
2022-12-23T07:57:29.323Z,99714.50
2022-12-23T07:59:55.645Z,99697.66
2022-12-23T08:02:25.134Z,99646.19
2022-12-23T08:04:52.068Z,99685.25
2022-12-23T08:07:18.424Z,99682.81
2022-12-23T08:09:44.725Z,99670.53
2022-12-23T08:12:11.096Z,99679.63
2022-12-23T08:14:37.432Z,99682.44
2022-12-23T08:17:03.825Z,99679.00
2022-12-23T08:19:30.186Z,99673.69
2022-12-23T08:21:56.563Z,99700.19
2022-12-23T08:24:22.836Z,99682.69
2022-12-23T08:26:49.128Z,99689.91
2022-12-23T08:29:15.604Z,99696.13
2022-12-23T08:31:41.963Z,99707.59
2022-12-23T08:34:08.281Z,99702.34
2022-12-23T08:36:36.243Z,99708.63
2022-12-23T08:39:09.290Z,99700.03
2022-12-23T08:41:38.925Z,99719.53
2022-12-23T08:44:05.375Z,99709.94
2022-12-23T08:46:32.407Z,99691.41
2022-12-23T08:48:58.891Z,99726.75
2022-12-23T08:51:26.183Z,99723.28
2022-12-23T08:53:59.831Z,99711.09
2022-12-23T08:56:29.772Z,99699.69
2022-12-23T08:58:56.244Z,99698.84
2022-12-23T09:01:25.776Z,99689.16
2022-12-23T09:03:52.702Z,99685.63
2022-12-23T09:06:31.991Z,99700.72
2022-12-23T09:08:58.793Z,99711.25
2022-12-23T09:11:28.002Z,99709.44
2022-12-23T09:13:54.742Z,99712.19
2022-12-23T09:16:21.542Z,99716.72
2022-12-23T09:18:47.933Z,99712.28
2022-12-23T09:21:17.841Z,99710.63
2022-12-23T09:23:44.145Z,99716.09
2022-12-23T09:26:10.979Z,99713.44
2022-12-23T09:28:37.646Z,99723.34
2022-12-23T09:31:11.817Z,99703.94
2022-12-23T09:33:38.900Z,99706.56
2022-12-23T09:36:06.289Z,99712.06
2022-12-23T09:38:33.106Z,99687.41
2022-12-23T09:41:34.808Z,99696.31
2022-12-23T09:44:19.661Z,99722.78
2022-12-23T09:46:56.696Z,99713.16
2022-12-23T09:49:23.848Z,99705.16
2022-12-23T09:51:53.994Z,99704.25
2022-12-23T09:54:24.815Z,99712.13
2022-12-23T09:56:54.947Z,99718.28
2022-12-23T09:59:46.248Z,99720.94
2022-12-23T10:02:28.378Z,99705.00
2022-12-23T10:05:21.733Z,99714.59
2022-12-23T10:08:23.476Z,99702.41
2022-12-23T10:10:56.506Z,99686.38
2022-12-23T10:13:39.796Z,99688.19
2022-12-23T10:16:15.546Z,99671.41
2022-12-23T10:18:51.966Z,99669.69
2022-12-23T10:21:31.576Z,99675.16
2022-12-23T10:24:05.124Z,99661.97
2022-12-23T10:26:36.598Z,99674.28
2022-12-23T10:29:19.212Z,99667.25
2022-12-23T10:32:04.387Z,99685.69
2022-12-23T10:34:56.837Z,99677.66
2022-12-23T10:37:45.003Z,99668.84
2022-12-23T10:40:25.619Z,99657.38
2022-12-23T10:43:16.964Z,99653.06
2022-12-23T10:46:22.551Z,99641.66
2022-12-23T10:48:59.923Z,99647.84
2022-12-23T10:51:35.857Z,99626.72
2022-12-23T10:54:14.486Z,99627.66
2022-12-23T10:56:40.961Z,99611.03
2022-12-23T10:59:14.043Z,99598.69
2022-12-23T11:01:43.318Z,99596.94
2022-12-23T11:04:25.316Z,99589.91
2022-12-23T11:07:18.096Z,99590.72
2022-12-23T11:09:44.268Z,99593.34
2022-12-23T11:12:12.000Z,99581.03
2022-12-23T11:14:57.742Z,99584.59
2022-12-23T11:17:26.544Z,99563.41
2022-12-23T11:20:15.738Z,99572.22
2022-12-23T11:22:54.269Z,99567.81
2022-12-23T11:25:29.614Z,99549.31
2022-12-23T11:28:21.994Z,99552.81
2022-12-23T11:31:05.548Z,99538.66
2022-12-23T11:33:35.319Z,99535.16
2022-12-23T11:36:07.553Z,99531.66
2022-12-23T11:38:36.228Z,99524.59
2022-12-23T11:41:04.572Z,99507.88
2022-12-23T11:43:32.355Z,99511.41
2022-12-23T11:46:17.688Z,99514.97
2022-12-23T11:48:44.018Z,99507.91
2022-12-23T11:51:10.403Z,99501.81
2022-12-23T11:53:36.777Z,99482.41
2022-12-23T11:56:05.139Z,99501.84
2022-12-23T11:58:40.510Z,99489.50
2022-12-23T12:01:16.543Z,99478.94
2022-12-23T12:04:06.119Z,99478.13
2022-12-23T12:06:33.367Z,99457.00
2022-12-23T12:09:02.996Z,99461.47
2022-12-23T12:11:36.664Z,99457.00
2022-12-23T12:14:08.413Z,99450.84
2022-12-23T12:16:52.879Z,99459.66
2022-12-23T12:19:28.476Z,99452.53
2022-12-23T12:22:00.501Z,99461.34
2022-12-23T12:24:37.667Z,99456.06
2022-12-23T12:27:06.872Z,99442.84
2022-12-23T12:29:56.782Z,99436.69
2022-12-23T12:32:39.911Z,99448.09
2022-12-23T12:35:14.878Z,99434.03
2022-12-23T12:37:48.678Z,99437.56
2022-12-23T12:40:26.200Z,99448.09
2022-12-23T12:42:59.828Z,99422.56
2022-12-23T12:45:39.553Z,99407.63
2022-12-23T12:48:28.011Z,99407.63
2022-12-23T12:51:08.656Z,99404.09
2022-12-23T12:53:37.536Z,99393.53
2022-12-23T12:56:15.092Z,99390.03
2022-12-23T12:58:44.464Z,99378.59
2022-12-23T13:01:17.150Z,99364.50
2022-12-23T13:04:19.971Z,99357.47
2022-12-23T13:07:11.738Z,99349.59
2022-12-23T13:09:56.705Z,99347.81
2022-12-23T13:12:40.862Z,99344.28
2022-12-23T13:15:10.646Z,99346.06
2022-12-23T13:18:04.439Z,99346.94
2022-12-23T13:20:30.773Z,99350.47
2022-12-23T13:23:34.313Z,99331.97
2022-12-23T13:26:01.445Z,99335.50
2022-12-23T13:28:51.218Z,99318.72
2022-12-23T13:31:43.748Z,99330.16
2022-12-23T13:34:23.844Z,99326.66
2022-12-23T13:37:28.487Z,99325.75
2022-12-23T13:40:11.795Z,99305.50
2022-12-23T13:42:44.802Z,99306.41
2022-12-23T13:45:16.424Z,99286.19
2022-12-23T13:48:04.391Z,99280.91
2022-12-23T13:50:43.131Z,99293.22
2022-12-23T13:53:21.148Z,99296.75
2022-12-23T13:56:16.391Z,99298.50
2022-12-23T13:58:47.965Z,99276.50
2022-12-23T14:01:14.438Z,99277.38
2022-12-23T14:03:40.905Z,99287.94
2022-12-23T14:06:20.078Z,99276.47
2022-12-23T14:08:47.601Z,99260.63
2022-12-23T14:11:31.970Z,99278.22
2022-12-23T14:14:01.122Z,99265.03
2022-12-23T14:17:04.936Z,99265.03
2022-12-23T14:19:42.254Z,99258.88
2022-12-23T14:22:46.298Z,99240.38
2022-12-23T14:25:34.492Z,99252.69
2022-12-23T14:28:24.860Z,99246.53
2022-12-23T14:30:51.342Z,99243.00
2022-12-23T14:33:30.206Z,99235.97
2022-12-23T14:36:25.494Z,99230.69
2022-12-23T14:39:14.894Z,99234.22
2022-12-23T14:41:57.585Z,99230.69
2022-12-23T14:44:35.660Z,99226.28
2022-12-23T14:47:03.624Z,99226.28
2022-12-23T14:49:43.927Z,99231.56
2022-12-23T14:52:38.033Z,99246.53
2022-12-23T14:55:32.589Z,99243.03
2022-12-23T14:58:13.056Z,99234.22
2022-12-23T15:00:49.281Z,99242.16
2022-12-23T15:03:17.483Z,99243.91
2022-12-23T15:05:44.180Z,99240.38
2022-12-23T15:08:38.942Z,99226.28
2022-12-23T15:11:09.104Z,99216.63
2022-12-23T15:13:37.045Z,99224.50
2022-12-23T15:16:03.392Z,99215.72
2022-12-23T15:18:29.770Z,99233.31
2022-12-23T15:21:01.565Z,99224.53
2022-12-23T15:23:28.098Z,99233.34
2022-12-23T15:26:00.195Z,99247.41
2022-12-23T15:28:41.143Z,99242.13
2022-12-23T15:31:22.963Z,99246.53
2022-12-23T15:34:02.958Z,99248.31
2022-12-23T15:36:36.040Z,99252.72
2022-12-23T15:39:09.798Z,99249.19
2022-12-23T15:41:46.783Z,99246.56
2022-12-23T15:44:18.573Z,99240.38
2022-12-23T15:46:44.966Z,99235.97
2022-12-23T15:49:12.077Z,99232.47
2022-12-23T15:52:13.736Z,99237.75
2022-12-23T15:54:53.554Z,99237.75
2022-12-23T15:57:22.556Z,99225.41
2022-12-23T15:59:49.405Z,99221.91
2022-12-23T16:05:32.103Z,99218.38
2022-12-23T16:08:28.584Z,99227.16
2022-12-23T16:11:10.481Z,99227.16
2022-12-23T16:13:41.495Z,99225.41
2022-12-23T16:16:18.588Z,99227.19
2022-12-23T16:18:47.612Z,99228.06
2022-12-23T16:21:15.000Z,99233.34
2022-12-23T16:23:50.386Z,99221.91
2022-12-23T16:26:16.757Z,99224.50
2022-12-23T16:28:46.451Z,99218.34
2022-12-23T16:31:16.912Z,99217.47
2022-12-23T16:33:59.700Z,99236.84
2022-12-23T16:36:26.037Z,99244.75
2022-12-23T16:39:08.783Z,99235.94
2022-12-23T16:41:35.602Z,99228.03
2022-12-23T16:44:02.830Z,99220.09
2022-12-23T16:46:36.091Z,99235.97
2022-12-23T16:49:05.267Z,99258.88
2022-12-23T16:51:33.840Z,99243.00
2022-12-23T16:54:01.025Z,99272.06
2022-12-23T16:56:30.110Z,99272.06
2022-12-23T16:58:56.387Z,99274.69
2022-12-23T17:01:31.998Z,99279.09
2022-12-23T17:03:58.372Z,99257.09
2022-12-23T17:06:25.895Z,99248.28
2022-12-23T17:08:53.185Z,99268.53
2022-12-23T17:11:25.603Z,99270.28
2022-12-23T17:13:54.362Z,99274.69
2022-12-23T17:16:25.594Z,99279.09
2022-12-23T17:18:53.088Z,99272.91
2022-12-23T17:21:28.434Z,99274.69
2022-12-23T17:24:03.014Z,99276.41
2022-12-23T17:26:29.421Z,99280.78
2022-12-23T17:28:55.695Z,99280.75
2022-12-23T17:31:26.909Z,99296.63
2022-12-23T17:33:54.070Z,99298.38
2022-12-23T17:36:20.636Z,99300.19
2022-12-23T17:38:47.053Z,99301.88
2022-12-23T17:41:30.806Z,99311.53
2022-12-23T17:43:57.969Z,99316.81
2022-12-23T17:46:25.322Z,99311.53
2022-12-23T17:48:52.580Z,99314.28
2022-12-23T17:51:21.965Z,99308.13
2022-12-23T17:53:55.111Z,99322.19
2022-12-23T17:56:24.491Z,99313.34
2022-12-23T17:58:51.057Z,99319.50
2022-12-23T18:01:20.790Z,99316.84
2022-12-23T18:03:47.425Z,99308.00
2022-12-23T18:06:15.634Z,99315.88
2022-12-23T18:08:42.262Z,99316.75
2022-12-23T18:11:16.234Z,99328.13
2022-12-23T18:13:42.641Z,99327.31
2022-12-23T18:16:11.954Z,99330.00
2022-12-23T18:18:46.130Z,99333.53
2022-12-23T18:21:24.485Z,99331.78
2022-12-23T18:23:53.458Z,99327.41
2022-12-23T18:26:19.919Z,99344.19
2022-12-23T18:28:46.304Z,99338.91
2022-12-23T18:31:21.556Z,99336.38
2022-12-23T18:33:47.923Z,99339.00
2022-12-23T18:36:30.368Z,99352.22
2022-12-23T18:38:57.255Z,99361.91
2022-12-23T18:41:25.444Z,99359.25
2022-12-23T18:43:52.569Z,99344.31
2022-12-23T18:46:20.017Z,99346.06
2022-12-23T18:48:46.574Z,99354.88
2022-12-23T18:51:14.969Z,99349.59
2022-12-23T18:53:43.381Z,99350.47
2022-12-23T18:56:13.964Z,99343.44
2022-12-23T18:58:40.392Z,99355.78
2022-12-23T19:01:13.653Z,99359.31
2022-12-23T19:03:40.487Z,99370.75
2022-12-23T19:06:08.580Z,99377.81
2022-12-23T19:08:36.942Z,99380.47
2022-12-23T19:11:12.682Z,99380.44
2022-12-23T19:13:39.223Z,99391.03
2022-12-23T19:16:05.686Z,99397.19
2022-12-23T19:18:32.046Z,99390.16
2022-12-23T19:21:02.641Z,99405.13
2022-12-23T19:23:28.925Z,99405.97
2022-12-23T19:25:55.727Z,99414.84
2022-12-23T19:28:23.600Z,99412.19
2022-12-23T19:30:50.435Z,99419.25
2022-12-23T19:33:16.792Z,99424.53
2022-12-23T19:35:43.987Z,99430.69
2022-12-23T19:38:12.101Z,99434.22
2022-12-23T19:40:38.446Z,99426.31
2022-12-23T19:43:04.856Z,99439.53
2022-12-23T19:45:37.287Z,99438.66
2022-12-23T19:48:03.867Z,99421.91
2022-12-23T19:50:30.231Z,99425.44
2022-12-23T19:52:57.238Z,99430.72
2022-12-23T19:55:23.712Z,99441.31
2022-12-23T19:57:50.086Z,99428.06
2022-12-23T20:00:16.660Z,99419.25
2022-12-23T20:02:43.061Z,99421.03
2022-12-23T20:05:10.036Z,99419.28
2022-12-23T20:07:36.911Z,99445.72
2022-12-23T20:10:04.449Z,99452.78
2022-12-23T20:12:30.799Z,99481.88
2022-12-23T20:14:57.085Z,99481.88
2022-12-23T20:17:23.347Z,99479.22
2022-12-23T20:19:49.588Z,99496.81
2022-12-23T20:22:16.961Z,99501.22
2022-12-23T20:24:43.429Z,99500.34
2022-12-23T20:27:12.071Z,99524.16
2022-12-23T20:29:39.656Z,99538.25
2022-12-23T20:32:06.044Z,99534.63
2022-12-23T20:34:38.637Z,99525.00
2022-12-23T20:37:06.395Z,99531.19
2022-12-23T20:39:32.695Z,99524.13
2022-12-23T20:41:58.998Z,99532.13
2022-12-23T20:44:34.983Z,99544.44
2022-12-23T20:47:02.469Z,99551.47
2022-12-23T20:49:29.054Z,99548.94
2022-12-23T20:51:55.368Z,99533.06
2022-12-23T20:54:26.340Z,99552.50
2022-12-23T20:56:56.284Z,99556.91
2022-12-23T20:59:22.581Z,99556.91
2022-12-23T21:01:48.999Z,99551.59
2022-12-23T21:04:16.689Z,99562.16
2022-12-23T21:06:44.221Z,99548.97
2022-12-23T21:09:12.547Z,99556.88
2022-12-23T21:11:42.880Z,99570.09
2022-12-23T21:14:09.492Z,99576.31
2022-12-23T21:16:37.338Z,99586.00
2022-12-23T21:19:05.948Z,99578.94
2022-12-23T21:21:32.364Z,99575.41
2022-12-23T21:24:01.130Z,99583.34
2022-12-23T21:26:29.875Z,99593.91
2022-12-23T21:28:59.297Z,99594.84
2022-12-23T21:31:27.417Z,99586.88
2022-12-23T21:33:54.580Z,99587.75
2022-12-23T21:36:24.020Z,99608.00
2022-12-23T21:38:51.152Z,99608.09
2022-12-23T21:41:22.068Z,99612.44
2022-12-23T21:43:49.232Z,99608.91
2022-12-23T21:46:18.175Z,99607.16
2022-12-23T21:48:45.096Z,99600.03
2022-12-23T21:51:23.303Z,99607.91
2022-12-23T21:53:52.196Z,99621.13
2022-12-23T21:56:25.707Z,99614.03
2022-12-23T21:59:00.516Z,99625.44
2022-12-23T22:01:27.796Z,99623.72
2022-12-23T22:03:55.080Z,99629.06
2022-12-23T22:06:24.435Z,99630.84
2022-12-23T22:08:52.672Z,99629.94
2022-12-23T22:11:22.126Z,99637.00
2022-12-23T22:13:49.008Z,99642.25
2022-12-23T22:16:21.369Z,99642.28
2022-12-23T22:18:48.845Z,99652.88
2022-12-23T22:21:18.981Z,99645.00
2022-12-23T22:23:48.744Z,99645.97
2022-12-23T22:26:24.697Z,99645.97
2022-12-23T22:28:52.664Z,99645.97
2022-12-23T22:32:00.228Z,99661.84
2022-12-23T22:34:26.626Z,99653.91
2022-12-23T22:36:52.963Z,99653.03
2022-12-23T22:39:21.871Z,99654.72
2022-12-23T22:41:50.652Z,99667.19
2022-12-23T22:44:17.715Z,99666.25
2022-12-23T22:46:44.589Z,99675.94
2022-12-23T22:49:15.047Z,99674.13
2022-12-23T22:51:42.064Z,99679.53
2022-12-23T22:54:10.835Z,99686.63
2022-12-23T22:56:37.602Z,99685.66
2022-12-23T22:59:06.581Z,99698.03
2022-12-23T23:01:34.747Z,99687.44
2022-12-23T23:04:02.923Z,99712.16
2022-12-23T23:06:32.243Z,99705.94
2022-12-23T23:08:59.525Z,99720.94
2022-12-23T23:11:27.124Z,99711.28
2022-12-23T23:13:54.026Z,99726.28
2022-12-23T23:16:20.624Z,99731.56
2022-12-23T23:18:47.003Z,99736.91
2022-12-23T23:21:14.365Z,99731.63
2022-12-23T23:23:40.862Z,99725.28
2022-12-23T23:26:10.131Z,99741.25
2022-12-23T23:28:37.496Z,99737.72
2022-12-23T23:31:39.708Z,99743.03
2022-12-23T23:33:50.136Z,99762.50
2022-12-23T23:36:16.533Z,99766.03
2022-12-23T23:38:42.848Z,99780.16
2022-12-23T23:41:09.204Z,99770.50
2022-12-23T23:43:35.541Z,99774.03
2022-12-23T23:46:01.970Z,99759.00
2022-12-23T23:48:28.397Z,99770.47
2022-12-23T23:51:04.625Z,99766.94
2022-12-23T23:53:30.946Z,99774.88
2022-12-23T23:56:01.947Z,99774.88
2022-12-23T23:58:28.199Z,99766.03
